This is the latest recevied weather packets stored in our database for station/object OK2IGL-6. If no packets are shown the sender has not sent any weather packets the latest 10 day(s).
| Time | Temp. | Humidity | Pressure | Rain* | Wind** | Luminosity | Snow |
|---|---|---|---|---|---|---|---|
| 1777537589 | 11.67° C | 42% | 1027 hPa | - | - | - | - |
| 1777537160 | 11.67° C | 42% | 1028 hPa | - | - | - | - |
| 1777536730 | 11.67° C | 43% | 1028 hPa | - | - | - | - |
| 1777535871 | 11.11° C | 44% | 1028 hPa | - | - | - | - |
| 1777535442 | 11.11° C | 44% | 1028 hPa | - | - | - | - |
| 1777534851 | 11.11° C | 45% | 1028 hPa | - | - | - | - |
| 1777534422 | 11.11° C | 45% | 1028 hPa | - | - | - | - |
| 1777533992 | 11.67° C | 43% | 1027 hPa | - | - | - | - |
| 1777533563 | 12.78° C | 43% | 1028 hPa | - | - | - | - |
| 1777533133 | 12.78° C | 43% | 1028 hPa | - | - | - | - |
| 1777532704 | 12.22° C | 43% | 1028 hPa | - | - | - | - |
| 1777532274 | 12.22° C | 42% | 1028 hPa | - | - | - | - |
| 1777530986 | 11.11° C | 46% | 1028 hPa | - | - | - | - |
| 1777530557 | 10.56° C | 47% | 1028 hPa | - | - | - | - |
| 1777530127 | 10.56° C | 47% | 1027 hPa | - | - | - | - |
| 1777529698 | 10° C | 48% | 1028 hPa | - | - | - | - |
| 1777529268 | 8.89° C | 51% | 1028 hPa | - | - | - | - |
| 1777528839 | 8.33° C | 52% | 1028 hPa | - | - | - | - |
| 1777528248 | 7.78° C | 56% | 1028 hPa | - | - | - | - |
| 1777527819 | 6.11° C | 61% | 1028 hPa | - | - | - | - |
| 1777527389 | 3.33° C | 68% | 1028 hPa | - | - | - | - |
| 1777526960 | 1.11° C | 74% | 1028 hPa | - | - | - | - |
| 1777526531 | 0° C | 76% | 1028 hPa | - | - | - | - |
| 1777526101 | 0° C | 77% | 1028 hPa | - | - | - | - |
| 1777525672 | -0.56° C | 77% | 1028 hPa | - | - | - | - |
* Rain since midnight (hover to see other rain measurements)
** Current wind speed in m/s (hover to see current wind gust speed)